KCFD/CFD METAR and TAF weather

Enter ICAO airport designator
Station Type Date Time Source
KCFD METAR 2021/09/28 16:55 UTC NOAA

KCFD 281655Z AUTO 20006KT 10SM BKN026 BKN035 31/22 A2994 RMK AO2 LTG DSNT S T03050224


Station Type Date Time Source
KCFD Decoded METAR 2021/09/28 16:55 UTC NOAA

Station name not available
Sep 28, 2021 - 12:55 PM EDT / 2021.09.28 1655 UTC
Wind: from the SSW (200 degrees) at 7 MPH (6 KT):0
Visibility: 10 mile(s):0
Sky conditions: mostly cloudy
Weather: Lightning observed
Temperature: 86.9 F (30.5 C)
Heat index: 93.7 F (34.3 C):1
Dew Point: 72.3 F (22.4 C)
Relative Humidity: 62%
Pressure (altimeter): 29.94 in. Hg (1013 hPa)
ob: KCFD 281655Z AUTO 20006KT 10SM BKN026 BKN035 31/22 A2994 RMK AO2 LTG DSNT S T03050224
cycle: 17

Station Type Date Time Source
KCFD TAF UTC NOAA

Error!

Example: see airport list